Time;durP1;ratioP1;P1;durP2;ratioP2;P2;SDS_P1;SDS_P2;PMS_P1;PMS_P2;Temp;Humidity;BMP_temperature;BMP_pressure;BME280_temperature;BME280_humidity;BME280_pressure;Samples;Min_cycle;Max_cycle;Signal;HPM_P1;HPM_P2
2024/01/30 00:00:50;;;;;;;8.57;1.33;;;;;;;;;;6270035;22;21096;-80
2024/01/30 00:03:18;;;;;;;7.88;1.27;;;;;;;;;;6245581;22;20028;-80
2024/01/30 00:05:44;;;;;;;7.38;0.70;;;;;;;;;;6246193;22;20019;-80
2024/01/30 00:08:11;;;;;;;8.15;0.90;;;;;;;;;;6245496;22;20016;-79
2024/01/30 00:10:38;;;;;;;6.38;0.98;;;;;;;;;;6246124;22;20438;-80
2024/01/30 00:13:04;;;;;;;7.63;1.15;;;;;;;;;;6245583;22;20012;-80
2024/01/30 00:15:31;;;;;;;8.75;1.17;;;;;;;;;;6245670;22;20421;-79
2024/01/30 00:17:58;;;;;;;5.22;0.80;;;;;;;;;;6246123;22;20074;-80
2024/01/30 00:20:25;;;;;;;4.10;0.80;;;;;;;;;;6245297;22;20016;-80
2024/01/30 00:22:51;;;;;;;4.05;0.65;;;;;;;;;;6269680;22;20016;-80
2024/01/30 00:25:18;;;;;;;7.97;1.00;;;;;;;;;;6245221;22;20016;-79
2024/01/30 00:27:45;;;;;;;6.43;1.05;;;;;;;;;;6245969;22;20016;-80
2024/01/30 00:30:12;;;;;;;8.20;1.27;;;;;;;;;;6245523;22;20329;-80
2024/01/30 00:32:39;;;;;;;3.90;0.70;;;;;;;;;;6245970;22;20119;-80
2024/01/30 00:35:05;;;;;;;3.40;0.85;;;;;;;;;;6245512;22;20020;-80
2024/01/30 00:37:32;;;;;;;7.75;1.02;;;;;;;;;;6246110;22;20039;-79
2024/01/30 00:39:59;;;;;;;3.63;0.60;;;;;;;;;;6245706;22;20440;-80
2024/01/30 00:42:26;;;;;;;8.15;0.93;;;;;;;;;;6245286;22;20797;-79
2024/01/30 00:44:53;;;;;;;6.18;0.70;;;;;;;;;;6245119;22;20016;-79
2024/01/30 00:47:20;;;;;;;4.07;0.77;;;;;;;;;;6244949;22;20016;-79
2024/01/30 00:49:46;;;;;;;4.90;1.02;;;;;;;;;;6245674;22;20079;-80
2024/01/30 00:52:13;;;;;;;7.93;1.20;;;;;;;;;;6245191;22;20008;-80
2024/01/30 00:54:40;;;;;;;7.20;1.00;;;;;;;;;;6243944;23;20384;-80
2024/01/30 00:57:07;;;;;;;7.38;1.00;;;;;;;;;;6245103;22;20321;-80
2024/01/30 00:59:34;;;;;;;6.70;1.17;;;;;;;;;;6245635;22;20020;-79
2024/01/30 01:02:01;;;;;;;7.93;1.05;;;;;;;;;;6245458;22;20433;-79
2024/01/30 01:04:28;;;;;;;5.95;1.20;;;;;;;;;;6245013;22;20024;-80
2024/01/30 01:06:54;;;;;;;6.90;1.02;;;;;;;;;;6245675;22;20365;-80
2024/01/30 01:09:21;;;;;;;14.48;1.73;;;;;;;;;;6245395;22;20115;-79
2024/01/30 01:11:48;;;;;;;7.90;1.40;;;;;;;;;;6245519;22;20012;-79
2024/01/30 01:14:15;;;;;;;3.25;1.67;;;;;;;;;;6243716;22;20016;-79
2024/01/30 01:16:42;;;;;;;6.18;1.90;;;;;;;;;;6246435;22;20066;-80
2024/01/30 01:19:09;;;;;;;7.75;2.08;;;;;;;;;;6243167;22;20016;-79
2024/01/30 01:21:36;;;;;;;8.13;2.05;;;;;;;;;;6245597;22;20012;-79
2024/01/30 01:24:02;;;;;;;12.50;2.88;;;;;;;;;;6245660;22;20004;-79
2024/01/30 01:26:29;;;;;;;6.25;1.63;;;;;;;;;;6243560;23;20082;-79
2024/01/30 01:28:56;;;;;;;7.03;1.70;;;;;;;;;;6245552;22;20039;-79
2024/01/30 01:31:24;;;;;;;7.07;1.45;;;;;;;;;;6245122;22;20307;-79
2024/01/30 01:33:51;;;;;;;;;;;;;;;;;;6245948;22;20437;-80
2024/01/30 01:36:18;;;;;;;11.02;2.60;;;;;;;;;;6244998;22;19922;-79
2024/01/30 01:38:45;;;;;;;8.38;1.30;;;;;;;;;;6269933;22;20012;-82
2024/01/30 01:41:11;;;;;;;7.93;1.52;;;;;;;;;;6244720;22;20012;-78
2024/01/30 01:43:39;;;;;;;15.52;1.85;;;;;;;;;;6245633;22;20019;-79
2024/01/30 01:46:07;;;;;;;7.05;1.75;;;;;;;;;;6244866;22;20016;-79
2024/01/30 01:48:33;;;;;;;6.43;1.35;;;;;;;;;;6245152;22;20108;-79
2024/01/30 01:51:01;;;;;;;9.02;1.13;;;;;;;;;;6245424;22;20020;-79
2024/01/30 01:53:28;;;;;;;9.48;1.40;;;;;;;;;;6244874;22;20036;-80
2024/01/30 01:55:55;;;;;;;7.13;1.27;;;;;;;;;;6245227;22;20099;-80
2024/01/30 01:58:23;;;;;;;3.50;1.20;;;;;;;;;;6244691;22;20015;-79
2024/01/30 02:00:51;;;;;;;10.30;1.45;;;;;;;;;;6247086;22;20318;-79
2024/01/30 02:03:21;;;;;;;8.68;1.20;;;;;;;;;;6246980;22;20442;-79
2024/01/30 02:05:50;;;;;;;12.38;1.85;;;;;;;;;;6247140;22;20015;-79
2024/01/30 02:08:17;;;;;;;10.95;1.65;;;;;;;;;;6246811;22;20035;-79
2024/01/30 02:10:44;;;;;;;9.38;1.80;;;;;;;;;;6247316;22;20036;-78
2024/01/30 02:13:12;;;;;;;5.40;1.75;;;;;;;;;;6246756;22;20368;-80
2024/01/30 02:15:38;;;;;;;7.97;1.38;;;;;;;;;;6247186;22;20012;-78
2024/01/30 02:18:05;;;;;;;6.28;1.90;;;;;;;;;;6246870;22;20008;-79
2024/01/30 02:20:34;;;;;;;10.98;1.55;;;;;;;;;;6247045;22;20055;-78
2024/01/30 02:23:02;;;;;;;7.30;1.15;;;;;;;;;;6246974;22;20429;-79
2024/01/30 02:25:44;;;;;;;9.48;1.40;;;;;;;;;;6247028;22;20020;-80
2024/01/30 02:28:13;;;;;;;11.48;2.05;;;;;;;;;;6270250;22;20024;-82
2024/01/30 02:30:42;;;;;;;18.33;3.83;;;;;;;;;;6247173;22;20022;-79
2024/01/30 02:33:09;;;;;;;;;;;;;;;;;;6247093;22;20035;-79
2024/01/30 02:35:35;;;;;;;12.60;4.22;;;;;;;;;;6245468;23;19986;-79
2024/01/30 02:38:03;;;;;;;11.05;3.25;;;;;;;;;;6247221;22;20066;-79
2024/01/30 02:40:30;;;;;;;11.98;1.95;;;;;;;;;;6246544;22;20337;-80
2024/01/30 02:43:02;;;;;;;7.22;1.42;;;;;;;;;;6247168;22;20008;-79
2024/01/30 02:45:29;;;;;;;5.97;1.42;;;;;;;;;;6246336;22;20794;-80
2024/01/30 02:47:56;;;;;;;9.20;1.55;;;;;;;;;;6246811;22;20339;-79
2024/01/30 02:50:22;;;;;;;10.63;2.15;;;;;;;;;;6246315;22;20043;-79
2024/01/30 02:52:49;;;;;;;8.38;3.13;;;;;;;;;;6247393;22;20066;-79
2024/01/30 02:55:19;;;;;;;11.43;2.58;;;;;;;;;;6245999;22;20016;-80
2024/01/30 02:57:46;;;;;;;11.77;2.60;;;;;;;;;;6246903;22;20035;-79
2024/01/30 03:00:13;;;;;;;9.90;2.72;;;;;;;;;;6246235;22;20397;-80
2024/01/30 03:02:39;;;;;;;12.57;1.92;;;;;;;;;;6246880;22;20062;-79
2024/01/30 03:05:07;;;;;;;6.82;1.52;;;;;;;;;;6244750;22;20441;-79
2024/01/30 03:07:34;;;;;;;13.85;2.00;;;;;;;;;;6245401;23;20383;-79
2024/01/30 03:10:01;;;;;;;5.95;1.52;;;;;;;;;;6244837;23;20012;-79
2024/01/30 03:12:28;;;;;;;8.65;1.55;;;;;;;;;;6246079;22;20369;-79
2024/01/30 03:14:55;;;;;;;6.07;1.92;;;;;;;;;;6246756;22;20091;-79
2024/01/30 03:17:21;;;;;;;13.68;2.80;;;;;;;;;;6245904;22;20012;-80
2024/01/30 03:19:48;;;;;;;5.65;1.77;;;;;;;;;;6246542;22;20058;-79
2024/01/30 03:22:15;;;;;;;10.95;1.85;;;;;;;;;;6246459;22;20019;-79
2024/01/30 03:24:42;;;;;;;10.15;1.48;;;;;;;;;;6246467;22;20020;-80
2024/01/30 03:27:09;;;;;;;7.15;1.35;;;;;;;;;;6245762;22;20134;-79
2024/01/30 03:29:36;;;;;;;9.10;1.33;;;;;;;;;;6246550;22;20011;-79
2024/01/30 03:32:03;;;;;;;12.90;1.25;;;;;;;;;;6246366;22;20516;-79
2024/01/30 03:34:30;;;;;;;8.47;1.00;;;;;;;;;;6246026;22;20023;-80
2024/01/30 03:36:57;;;;;;;7.90;1.27;;;;;;;;;;6246320;22;20012;-79
2024/01/30 03:39:24;;;;;;;18.45;1.77;;;;;;;;;;6246816;22;20461;-79
2024/01/30 03:41:51;;;;;;;6.53;1.35;;;;;;;;;;6246990;22;20020;-79
2024/01/30 03:44:18;;;;;;;7.68;2.42;;;;;;;;;;6246166;23;20098;-79
2024/01/30 03:46:44;;;;;;;6.30;1.50;;;;;;;;;;6246698;22;20024;-80
2024/01/30 03:49:11;;;;;;;8.70;1.55;;;;;;;;;;6246748;22;20027;-80
2024/01/30 03:51:38;;;;;;;9.32;1.77;;;;;;;;;;6246824;22;20070;-80
2024/01/30 03:54:04;;;;;;;8.30;1.50;;;;;;;;;;6247225;22;20199;-79
2024/01/30 03:56:32;;;;;;;5.60;1.40;;;;;;;;;;6244449;22;20016;-79
2024/01/30 03:59:00;;;;;;;8.48;1.88;;;;;;;;;;6246236;22;20012;-80
2024/01/30 04:01:27;;;;;;;12.13;1.90;;;;;;;;;;6245449;22;20016;-80
2024/01/30 04:03:54;;;;;;;7.80;1.75;;;;;;;;;;6245886;22;20332;-79
2024/01/30 04:06:20;;;;;;;10.10;1.67;;;;;;;;;;6245627;22;20042;-80
2024/01/30 04:08:47;;;;;;;12.70;3.88;;;;;;;;;;6246462;22;20317;-78
2024/01/30 04:11:14;;;;;;;6.72;2.10;;;;;;;;;;6244602;23;20111;-80
2024/01/30 04:13:43;;;;;;;11.38;2.70;;;;;;;;;;6245969;22;20016;-80
2024/01/30 04:16:20;;;;;;;9.05;1.98;;;;;;;;;;6245947;22;20044;-79
2024/01/30 04:18:47;;;;;;;10.75;1.77;;;;;;;;;;6245931;22;20016;-80
2024/01/30 04:21:13;;;;;;;5.22;1.30;;;;;;;;;;6245399;22;20013;-80
2024/01/30 04:23:41;;;;;;;6.43;1.30;;;;;;;;;;6245550;22;20016;-80
2024/01/30 04:26:08;;;;;;;13.13;1.70;;;;;;;;;;6245403;22;20008;-79
2024/01/30 04:28:34;;;;;;;8.85;1.55;;;;;;;;;;6246040;22;20027;-79
2024/01/30 04:31:01;;;;;;;6.35;1.92;;;;;;;;;;6245747;22;20455;-80
2024/01/30 04:33:28;;;;;;;7.97;1.55;;;;;;;;;;6245260;22;20020;-80
2024/01/30 04:35:55;;;;;;;9.25;1.50;;;;;;;;;;6245938;22;20159;-79
2024/01/30 04:38:21;;;;;;;3.60;1.13;;;;;;;;;;6245243;22;20031;-80
2024/01/30 04:40:48;;;;;;;10.98;1.90;;;;;;;;;;6245941;22;20027;-80
2024/01/30 04:43:15;;;;;;;7.07;1.50;;;;;;;;;;6245135;22;20012;-80
2024/01/30 04:45:42;;;;;;;5.75;1.38;;;;;;;;;;6245760;22;20017;-80
2024/01/30 04:48:09;;;;;;;10.65;1.27;;;;;;;;;;6245361;22;20063;-79
2024/01/30 04:50:36;;;;;;;5.72;1.38;;;;;;;;;;6245764;22;20019;-80
2024/01/30 04:53:03;;;;;;;6.10;1.58;;;;;;;;;;6245742;22;20019;-80
2024/01/30 04:55:30;;;;;;;9.50;1.58;;;;;;;;;;6245289;22;20513;-80
2024/01/30 04:57:57;;;;;;;5.88;1.80;;;;;;;;;;6245537;22;20008;-79
2024/01/30 05:00:23;;;;;;;7.80;1.73;;;;;;;;;;6244974;22;20024;-80
2024/01/30 05:02:50;;;;;;;9.65;4.03;;;;;;;;;;6245784;22;20019;-80
2024/01/30 05:05:17;;;;;;;10.07;2.72;;;;;;;;;;6245065;22;20027;-79
2024/01/30 05:07:43;;;;;;;8.80;6.50;;;;;;;;;;6245633;22;20084;-80
2024/01/30 05:10:10;;;;;;;6.75;4.25;;;;;;;;;;6244996;22;20429;-80
2024/01/30 05:12:38;;;;;;;6.60;2.33;;;;;;;;;;6245885;22;20095;-79
2024/01/30 05:15:06;;;;;;;9.20;2.25;;;;;;;;;;6245003;22;20079;-79
2024/01/30 05:17:33;;;;;;;5.47;1.70;;;;;;;;;;6243936;22;20027;-80
2024/01/30 05:20:00;;;;;;;9.10;1.85;;;;;;;;;;6245445;22;20091;-80
2024/01/30 05:22:27;;;;;;;9.60;1.60;;;;;;;;;;6245057;22;20016;-80
2024/01/30 05:24:53;;;;;;;10.13;2.38;;;;;;;;;;6269120;22;20040;-80
2024/01/30 05:27:20;;;;;;;5.35;1.95;;;;;;;;;;6268796;22;20031;-80
2024/01/30 05:29:47;;;;;;;7.60;1.75;;;;;;;;;;6245424;22;20016;-80
2024/01/30 05:32:14;;;;;;;8.45;2.00;;;;;;;;;;6244937;22;20066;-80
2024/01/30 05:34:40;;;;;;;5.18;2.20;;;;;;;;;;6247126;22;20023;-80
2024/01/30 05:37:07;;;;;;;11.55;2.00;;;;;;;;;;6245482;22;20500;-83
2024/01/30 05:39:35;;;;;;;10.13;1.67;;;;;;;;;;6247312;22;20012;-81
2024/01/30 05:42:02;;;;;;;6.97;1.80;;;;;;;;;;6217332;23;20437;-80
2024/01/30 05:44:29;;;;;;;9.35;2.13;;;;;;;;;;6246954;22;20020;-81
2024/01/30 05:46:55;;;;;;;7.00;2.17;;;;;;;;;;6245572;23;20020;-80
2024/01/30 05:49:22;;;;;;;12.27;2.80;;;;;;;;;;6247083;22;20418;-80
2024/01/30 05:51:49;;;;;;;6.65;2.22;;;;;;;;;;6246608;22;20321;-80
2024/01/30 05:54:16;;;;;;;6.57;1.80;;;;;;;;;;6246878;22;20066;-80
2024/01/30 05:56:43;;;;;;;9.13;2.28;;;;;;;;;;6246673;22;20028;-80
2024/01/30 05:59:10;;;;;;;8.15;1.77;;;;;;;;;;6246346;22;20016;-80
2024/01/30 06:01:37;;;;;;;12.30;2.75;;;;;;;;;;6245821;23;20032;-79
2024/01/30 06:04:03;;;;;;;10.60;2.75;;;;;;;;;;6247532;22;20364;-79
2024/01/30 06:06:30;;;;;;;11.25;2.00;;;;;;;;;;6246103;22;20012;-79
2024/01/30 06:08:57;;;;;;;4.72;2.30;;;;;;;;;;6271153;22;20350;-80
2024/01/30 06:11:24;;;;;;;3.45;1.40;;;;;;;;;;6244803;22;20030;-80
2024/01/30 06:13:50;;;;;;;4.88;1.67;;;;;;;;;;6246985;22;20074;-80
2024/01/30 06:16:17;;;;;;;8.05;2.03;;;;;;;;;;6246800;22;20095;-80
2024/01/30 06:18:44;;;;;;;7.38;3.35;;;;;;;;;;6247082;22;20070;-79
2024/01/30 06:21:11;;;;;;;6.78;3.00;;;;;;;;;;6246522;22;20012;-80
2024/01/30 06:23:38;;;;;;;6.88;2.30;;;;;;;;;;6247223;22;20016;-80
2024/01/30 06:26:07;;;;;;;5.25;2.38;;;;;;;;;;6246304;22;20012;-79
2024/01/30 06:28:33;;;;;;;4.95;2.55;;;;;;;;;;6247424;22;20086;-80
2024/01/30 06:31:03;;;;;;;7.38;2.47;;;;;;;;;;6247141;22;20016;-79
2024/01/30 06:33:30;;;;;;;4.10;1.15;;;;;;;;;;6246947;22;20020;-79
2024/01/30 06:35:57;;;;;;;3.35;1.50;;;;;;;;;;6245267;22;20097;-79
2024/01/30 06:38:24;;;;;;;4.78;1.70;;;;;;;;;;6244037;22;20031;-79
2024/01/30 06:40:50;;;;;;;10.25;4.72;;;;;;;;;;6242913;23;20016;-78
2024/01/30 06:43:17;;;;;;;4.25;1.40;;;;;;;;;;6242287;22;20018;-80
2024/01/30 06:45:44;;;;;;;5.03;1.45;;;;;;;;;;6243936;22;20023;-79
2024/01/30 06:48:11;;;;;;;2.55;1.30;;;;;;;;;;6243968;22;20111;-80
2024/01/30 06:50:37;;;;;;;3.22;1.30;;;;;;;;;;6245380;22;20019;-80
2024/01/30 06:53:04;;;;;;;3.17;1.10;;;;;;;;;;6246247;22;20032;-79
2024/01/30 06:55:31;;;;;;;3.50;1.30;;;;;;;;;;6246812;22;20011;-79
2024/01/30 06:57:58;;;;;;;3.20;1.10;;;;;;;;;;6245173;23;20066;-80
2024/01/30 07:00:24;;;;;;;2.28;1.08;;;;;;;;;;6245655;22;20314;-79
2024/01/30 07:02:51;;;;;;;3.85;1.20;;;;;;;;;;6247044;22;20012;-80
2024/01/30 07:05:18;;;;;;;3.47;1.55;;;;;;;;;;6246117;22;20063;-79
2024/01/30 07:07:45;;;;;;;8.73;2.03;;;;;;;;;;6246640;22;20020;-80
2024/01/30 07:10:11;;;;;;;7.72;1.63;;;;;;;;;;6246070;22;20463;-79
2024/01/30 07:12:39;;;;;;;6.45;1.73;;;;;;;;;;6246796;22;20074;-80
2024/01/30 07:15:08;;;;;;;5.57;1.38;;;;;;;;;;6245930;22;20036;-80
2024/01/30 07:17:35;;;;;;;6.00;2.13;;;;;;;;;;6245265;23;20047;-79
2024/01/30 07:20:05;;;;;;;6.03;1.85;;;;;;;;;;6245001;23;20012;-80
2024/01/30 07:22:33;;;;;;;6.68;2.15;;;;;;;;;;6246565;22;20441;-79
2024/01/30 07:25:00;;;;;;;6.22;2.08;;;;;;;;;;6244996;23;20495;-82
2024/01/30 07:27:27;;;;;;;4.88;1.70;;;;;;;;;;6246289;22;20040;-80
2024/01/30 07:29:54;;;;;;;10.63;2.80;;;;;;;;;;6246471;22;20016;-79
2024/01/30 07:32:21;;;;;;;6.60;3.03;;;;;;;;;;6246323;22;20016;-79
2024/01/30 07:34:47;;;;;;;10.90;3.65;;;;;;;;;;6246261;22;20016;-80
2024/01/30 07:37:32;;;;;;;9.60;4.85;;;;;;;;;;6246303;22;20016;-84
2024/01/30 07:40:00;;;;;;;5.15;3.00;;;;;;;;;;6246856;23;20429;-78
2024/01/30 07:42:26;;;;;;;7.05;2.50;;;;;;;;;;6246464;22;21018;-78
2024/01/30 07:44:53;;;;;;;7.72;2.95;;;;;;;;;;6246367;22;20299;-78
2024/01/30 07:47:20;;;;;;;10.27;3.90;;;;;;;;;;6245837;22;20016;-78
2024/01/30 07:49:46;;;;;;;8.40;2.97;;;;;;;;;;6246398;22;20008;-79
2024/01/30 07:52:13;;;;;;;12.43;6.68;;;;;;;;;;6245969;22;20013;-79
2024/01/30 07:54:50;;;;;;;14.43;5.38;;;;;;;;;;6246534;22;20095;-79
2024/01/30 07:57:17;;;;;;;12.18;5.43;;;;;;;;;;6245491;22;20016;-79
2024/01/30 07:59:45;;;;;;;8.60;3.60;;;;;;;;;;6246406;22;20380;-79
2024/01/30 08:02:12;;;;;;;10.27;3.60;;;;;;;;;;6245650;22;20039;-79
2024/01/30 08:04:39;;;;;;;9.27;3.88;;;;;;;;;;6270102;22;20087;-79
2024/01/30 08:07:06;;;;;;;14.13;4.78;;;;;;;;;;6246461;22;20028;-79
2024/01/30 08:09:33;;;;;;;14.85;7.20;;;;;;;;;;6246077;22;20015;-79
2024/01/30 08:12:00;;;;;;;14.75;6.65;;;;;;;;;;6244568;23;20012;-79
2024/01/30 08:14:27;;;;;;;18.35;5.95;;;;;;;;;;6245386;22;20024;-79
2024/01/30 08:16:55;;;;;;;103.65;63.25;;;;;;;;;;6246061;22;20027;-79
2024/01/30 08:19:22;;;;;;;69.72;36.45;;;;;;;;;;6245768;22;20013;-81
2024/01/30 08:21:48;;;;;;;72.13;39.30;;;;;;;;;;6244302;23;20023;-79
2024/01/30 08:24:15;;;;;;;22.85;12.82;;;;;;;;;;6245555;22;20016;-79
2024/01/30 08:26:42;;;;;;;21.80;10.45;;;;;;;;;;6246055;22;20046;-80
2024/01/30 08:29:09;;;;;;;13.77;8.27;;;;;;;;;;6245344;22;20019;-79
2024/01/30 08:31:36;;;;;;;16.15;7.63;;;;;;;;;;6246882;23;20062;-80
2024/01/30 08:34:02;;;;;;;17.10;7.53;;;;;;;;;;6246478;22;20568;-79
2024/01/30 08:36:29;;;;;;;13.98;7.18;;;;;;;;;;6245889;22;20020;-79
2024/01/30 08:38:56;;;;;;;11.38;6.10;;;;;;;;;;6245863;22;20464;-80
2024/01/30 08:41:29;;;;;;;9.73;5.07;;;;;;;;;;6245503;22;20429;-80
2024/01/30 08:43:56;;;;;;;11.82;6.38;;;;;;;;;;6219170;23;20050;-79
2024/01/30 08:46:23;;;;;;;10.25;4.93;;;;;;;;;;6245187;22;20031;-79
2024/01/30 08:48:50;;;;;;;5.78;3.00;;;;;;;;;;6244853;23;20078;-79
2024/01/30 08:51:17;;;;;;;7.20;3.08;;;;;;;;;;6246372;22;20333;-80
2024/01/30 08:53:44;;;;;;;6.10;3.78;;;;;;;;;;6245879;22;20321;-79
2024/01/30 08:56:11;;;;;;;10.98;6.43;;;;;;;;;;6245224;22;20008;-78
2024/01/30 08:58:37;;;;;;;14.45;6.85;;;;;;;;;;6245788;22;20012;-79
2024/01/30 09:01:05;;;;;;;22.02;6.88;;;;;;;;;;6245282;22;20042;-79
2024/01/30 09:03:32;;;;;;;11.48;6.22;;;;;;;;;;6245755;22;20036;-80
2024/01/30 09:05:59;;;;;;;10.57;4.20;;;;;;;;;;6245599;22;20012;-79
2024/01/30 09:08:26;;;;;;;13.10;4.35;;;;;;;;;;6244911;22;20022;-79
2024/01/30 09:10:53;;;;;;;14.43;5.05;;;;;;;;;;6245803;22;20087;-80
2024/01/30 09:13:20;;;;;;;12.95;4.80;;;;;;;;;;6245066;22;20012;-80
2024/01/30 09:15:46;;;;;;;9.40;4.88;;;;;;;;;;6244233;23;20012;-79
2024/01/30 09:18:13;;;;;;;11.57;6.05;;;;;;;;;;6244968;22;20031;-80
2024/01/30 09:20:40;;;;;;;13.00;6.75;;;;;;;;;;6245625;22;20023;-79
2024/01/30 09:23:08;;;;;;;12.63;7.00;;;;;;;;;;6245282;22;20023;-79
2024/01/30 09:25:34;;;;;;;12.50;7.45;;;;;;;;;;6245672;22;20329;-79
2024/01/30 09:28:01;;;;;;;20.48;13.35;;;;;;;;;;6245750;22;20012;-80
2024/01/30 09:30:28;;;;;;;16.10;7.10;;;;;;;;;;6244829;22;20020;-79
2024/01/30 09:32:55;;;;;;;11.60;6.15;;;;;;;;;;6245486;22;20306;-79
2024/01/30 09:35:21;;;;;;;10.75;5.78;;;;;;;;;;6244859;22;20441;-79
2024/01/30 09:37:48;;;;;;;9.57;5.03;;;;;;;;;;6245394;22;20009;-79
2024/01/30 09:40:18;;;;;;;10.43;6.00;;;;;;;;;;6245000;22;20020;-80
2024/01/30 09:42:50;;;;;;;9.77;5.18;;;;;;;;;;6245631;22;20012;-80
2024/01/30 09:45:18;;;;;;;10.80;5.30;;;;;;;;;;6242990;22;20016;-79
2024/01/30 09:47:46;;;;;;;9.32;5.30;;;;;;;;;;6245998;22;20019;-79
2024/01/30 09:50:14;;;;;;;9.93;5.35;;;;;;;;;;6245757;22;20107;-79
2024/01/30 09:52:43;;;;;;;8.68;5.32;;;;;;;;;;6244220;23;20023;-80
2024/01/30 09:55:10;;;;;;;8.65;5.30;;;;;;;;;;6268890;22;20024;-79
2024/01/30 09:57:37;;;;;;;10.55;4.60;;;;;;;;;;6245313;22;20028;-80
2024/01/30 10:00:08;;;;;;;8.85;5.47;;;;;;;;;;6244373;22;20404;-80
2024/01/30 10:02:36;;;;;;;10.43;8.48;;;;;;;;;;6243059;22;20329;-79
2024/01/30 10:05:03;;;;;;;9.25;7.40;;;;;;;;;;6245439;22;20440;-79
2024/01/30 10:07:30;;;;;;;14.68;9.38;;;;;;;;;;6244983;22;20020;-79
2024/01/30 10:09:57;;;;;;;15.00;8.38;;;;;;;;;;6246054;22;20036;-79
2024/01/30 10:12:26;;;;;;;12.95;6.65;;;;;;;;;;6244689;22;20032;-79
2024/01/30 10:14:53;;;;;;;11.60;6.68;;;;;;;;;;6245594;22;20015;-79
2024/01/30 10:17:21;;;;;;;10.18;5.95;;;;;;;;;;6243453;22;20016;-80
2024/01/30 10:19:59;;;;;;;11.00;6.15;;;;;;;;;;6245452;22;20016;-80
2024/01/30 10:22:26;;;;;;;14.15;6.65;;;;;;;;;;6246505;22;20087;-78
2024/01/30 10:24:53;;;;;;;6.18;3.60;;;;;;;;;;6247192;22;20008;-80
2024/01/30 10:27:29;;;;;;;4.97;3.13;;;;;;;;;;6246698;22;20091;-79
2024/01/30 10:29:56;;;;;;;6.35;1.35;;;;;;;;;;6247196;22;20016;-79
2024/01/30 10:32:23;;;;;;;7.85;3.60;;;;;;;;;;6246419;22;20019;-80
2024/01/30 10:34:50;;;;;;;12.18;5.90;;;;;;;;;;6247001;22;20606;-79
2024/01/30 10:37:18;;;;;;;7.60;3.55;;;;;;;;;;6246321;22;20069;-79
2024/01/30 10:39:46;;;;;;;10.15;4.35;;;;;;;;;;6247098;22;20433;-80
2024/01/30 10:42:15;;;;;;;7.80;4.88;;;;;;;;;;6246428;22;20020;-80
2024/01/30 10:44:59;;;;;;;6.50;3.22;;;;;;;;;;6247186;22;20019;-79
2024/01/30 10:47:28;;;;;;;6.10;2.60;;;;;;;;;;6247114;22;20017;-79
2024/01/30 10:49:55;;;;;;;;;;;;;;;;;;6247728;22;20027;-79
2024/01/30 10:52:27;;;;;;;6.85;2.90;;;;;;;;;;6248140;23;19922;-79
2024/01/30 10:54:55;;;;;;;9.68;2.80;;;;;;;;;;6246926;22;20039;-80
2024/01/30 10:57:26;;;;;;;8.77;1.67;;;;;;;;;;6246262;22;20027;-80
2024/01/30 10:59:56;;;;;;;7.03;1.42;;;;;;;;;;6246817;22;20282;-79
2024/01/30 11:02:24;;;;;;;4.55;1.73;;;;;;;;;;6245236;22;20319;-79
2024/01/30 11:04:58;;;;;;;7.55;1.13;;;;;;;;;;6247141;22;20433;-80
2024/01/30 11:07:27;;;;;;;6.40;1.27;;;;;;;;;;6246313;22;20031;-80
2024/01/30 11:09:57;;;;;;;;;;;;;;;;;;6247139;22;20016;-80
2024/01/30 11:12:25;;;;;;;5.25;1.67;;;;;;;;;;6246119;22;20293;-79
2024/01/30 11:15:14;;;;;;;6.53;1.30;;;;;;;;;;6246890;22;20012;-79
2024/01/30 11:17:50;;;;;;;;;;;;;;;;;;6246900;22;20067;-80
2024/01/30 11:20:27;;;;;;;4.13;0.90;;;;;;;;;;6245872;22;20256;-80
2024/01/30 11:22:56;;;;;;;13.30;1.88;;;;;;;;;;6246779;22;20008;-80
2024/01/30 11:25:24;;;;;;;8.00;1.52;;;;;;;;;;6245910;22;20019;-79
2024/01/30 11:27:55;;;;;;;6.45;1.00;;;;;;;;;;6246551;22;20008;-79
2024/01/30 11:30:25;;;;;;;7.85;0.95;;;;;;;;;;6245987;22;20368;-79
2024/01/30 11:33:06;;;;;;;7.93;0.98;;;;;;;;;;6246304;22;20306;-78
2024/01/30 11:35:36;;;;;;;5.35;1.05;;;;;;;;;;6246156;22;20020;-79
2024/01/30 11:38:05;;;;;;;6.70;1.00;;;;;;;;;;6246514;22;20023;-80
2024/01/30 11:40:33;;;;;;;7.05;1.00;;;;;;;;;;6244534;23;20039;-79
2024/01/30 11:43:02;;;;;;;6.53;1.40;;;;;;;;;;6246645;22;20016;-79
2024/01/30 11:45:29;;;;;;;3.63;0.95;;;;;;;;;;6245323;22;20020;-79
2024/01/30 11:47:57;;;;;;;4.90;0.70;;;;;;;;;;6244495;22;20020;-79
2024/01/30 11:50:25;;;;;;;5.32;1.08;;;;;;;;;;6244071;22;20016;-80
2024/01/30 11:52:51;;;;;;;5.70;1.17;;;;;;;;;;6244933;22;20019;-80
2024/01/30 11:55:19;;;;;;;7.03;1.20;;;;;;;;;;6243903;22;20309;-79
2024/01/30 11:57:45;;;;;;;5.28;1.02;;;;;;;;;;6244510;22;20020;-79
2024/01/30 12:00:16;;;;;;;8.50;1.30;;;;;;;;;;6243903;22;20016;-80
2024/01/30 12:02:44;;;;;;;7.07;1.10;;;;;;;;;;6244550;22;20066;-79
2024/01/30 12:05:11;;;;;;;7.32;1.25;;;;;;;;;;6244023;22;20035;-79
2024/01/30 12:07:37;;;;;;;12.07;1.83;;;;;;;;;;6244533;22;20036;-79
2024/01/30 12:10:05;;;;;;;7.63;1.23;;;;;;;;;;6244392;22;20329;-79
2024/01/30 12:12:32;;;;;;;8.20;1.40;;;;;;;;;;6244176;22;20023;-79
2024/01/30 12:14:59;;;;;;;4.30;1.63;;;;;;;;;;6268121;22;20059;-79
2024/01/30 12:17:30;;;;;;;8.77;1.65;;;;;;;;;;6244102;22;20020;-78
2024/01/30 12:20:12;;;;;;;6.70;1.45;;;;;;;;;;6244768;22;20028;-79
2024/01/30 12:22:39;;;;;;;6.13;1.42;;;;;;;;;;6245551;22;20020;-79
2024/01/30 12:25:09;;;;;;;5.30;1.00;;;;;;;;;;6245528;22;20043;-79
2024/01/30 12:27:39;;;;;;;7.38;1.60;;;;;;;;;;6245784;22;20016;-78
2024/01/30 12:30:07;;;;;;;7.25;1.50;;;;;;;;;;6245496;22;20086;-80
2024/01/30 12:32:39;;;;;;;13.13;1.80;;;;;;;;;;6245864;22;20012;-79
2024/01/30 12:35:13;;;;;;;5.88;1.45;;;;;;;;;;6245260;22;20015;-79
2024/01/30 12:37:42;;;;;;;9.43;1.58;;;;;;;;;;6245731;22;20012;-79
2024/01/30 12:40:10;;;;;;;9.35;1.50;;;;;;;;;;6245338;22;20012;-79
2024/01/30 12:42:37;;;;;;;5.85;1.30;;;;;;;;;;6244245;23;20441;-80
2024/01/30 12:45:04;;;;;;;5.97;1.58;;;;;;;;;;6246546;22;20012;-78
2024/01/30 12:47:32;;;;;;;8.73;1.70;;;;;;;;;;6245587;22;20254;-79
2024/01/30 12:49:59;;;;;;;4.97;1.38;;;;;;;;;;6245852;22;20073;-79
2024/01/30 12:52:27;;;;;;;7.18;1.40;;;;;;;;;;6245078;22;20027;-79
2024/01/30 12:54:54;;;;;;;10.30;1.40;;;;;;;;;;6269831;22;20015;-79
2024/01/30 12:57:21;;;;;;;6.47;1.50;;;;;;;;;;6245030;22;20015;-78
2024/01/30 12:59:48;;;;;;;5.90;1.10;;;;;;;;;;6245539;22;20022;-79
2024/01/30 13:02:15;;;;;;;11.23;1.35;;;;;;;;;;6246845;23;20020;-79
2024/01/30 13:04:43;;;;;;;11.07;1.52;;;;;;;;;;6246120;22;20042;-79
2024/01/30 13:07:13;;;;;;;7.57;2.22;;;;;;;;;;6246218;22;20047;-79
2024/01/30 13:09:40;;;;;;;7.18;1.25;;;;;;;;;;6245043;22;20016;-79
2024/01/30 13:12:07;;;;;;;7.85;1.30;;;;;;;;;;6243588;22;20012;-79
2024/01/30 13:14:33;;;;;;;6.93;1.30;;;;;;;;;;6244619;22;20016;-79
2024/01/30 13:17:00;;;;;;;7.05;1.38;;;;;;;;;;6246220;22;20369;-79
2024/01/30 13:19:27;;;;;;;8.20;1.85;;;;;;;;;;6244907;22;20020;-78
2024/01/30 13:21:54;;;;;;;6.82;1.48;;;;;;;;;;6245372;22;20656;-79
2024/01/30 13:24:21;;;;;;;4.20;1.00;;;;;;;;;;6245115;22;20091;-78
2024/01/30 13:26:48;;;;;;;4.75;1.35;;;;;;;;;;6245623;22;20020;-79
2024/01/30 13:29:15;;;;;;;7.68;1.42;;;;;;;;;;6245101;22;20082;-79
2024/01/30 13:31:44;;;;;;;6.25;1.52;;;;;;;;;;6245537;22;20028;-78
2024/01/30 13:34:11;;;;;;;4.55;1.05;;;;;;;;;;6244962;22;20008;-79
2024/01/30 13:36:38;;;;;;;7.47;1.30;;;;;;;;;;6245471;22;20023;-78
2024/01/30 13:39:10;;;;;;;7.50;1.45;;;;;;;;;;6245041;22;20475;-79
2024/01/30 13:41:37;;;;;;;10.48;1.50;;;;;;;;;;6245455;22;20012;-79
2024/01/30 13:44:04;;;;;;;5.25;1.45;;;;;;;;;;6245105;22;20083;-78
2024/01/30 13:46:31;;;;;;;8.38;2.25;;;;;;;;;;6245560;22;20036;-79
2024/01/30 13:48:58;;;;;;;14.57;4.32;;;;;;;;;;6245517;22;20012;-78
2024/01/30 13:51:25;;;;;;;9.90;2.22;;;;;;;;;;6243348;22;20027;-79
2024/01/30 13:53:52;;;;;;;6.82;1.10;;;;;;;;;;6245495;22;20013;-80
2024/01/30 13:56:20;;;;;;;5.70;1.20;;;;;;;;;;6246892;22;20005;-79
2024/01/30 13:58:50;;;;;;;16.20;4.13;;;;;;;;;;6247257;22;20019;-79
2024/01/30 14:01:17;;;;;;;8.98;2.35;;;;;;;;;;6246993;22;20723;-79
2024/01/30 14:03:44;;;;;;;6.57;1.20;;;;;;;;;;6247337;22;20647;-79
2024/01/30 14:06:12;;;;;;;10.90;1.80;;;;;;;;;;6246831;22;20019;-79
2024/01/30 14:08:39;;;;;;;9.20;1.40;;;;;;;;;;6247533;22;20047;-79
2024/01/30 14:11:05;;;;;;;6.75;1.35;;;;;;;;;;6246766;22;20008;-79
2024/01/30 14:13:32;;;;;;;9.68;1.75;;;;;;;;;;6247380;22;20078;-79
2024/01/30 14:16:00;;;;;;;5.95;2.10;;;;;;;;;;6247394;22;20014;-78
2024/01/30 14:18:27;;;;;;;6.18;1.40;;;;;;;;;;6246741;22;20016;-79
2024/01/30 14:20:54;;;;;;;8.80;1.50;;;;;;;;;;6247398;22;20440;-79
2024/01/30 14:23:21;;;;;;;5.35;1.13;;;;;;;;;;6246917;22;20380;-79
2024/01/30 14:25:48;;;;;;;7.68;1.42;;;;;;;;;;6245494;22;20035;-78
2024/01/30 14:28:15;;;;;;;6.20;1.17;;;;;;;;;;6245108;22;20070;-78
2024/01/30 14:30:42;;;;;;;9.52;2.08;;;;;;;;;;6268885;22;20019;-79
2024/01/30 14:33:09;;;;;;;8.82;2.92;;;;;;;;;;6246807;22;20019;-79
2024/01/30 14:35:36;;;;;;;7.40;1.98;;;;;;;;;;6247308;22;20043;-79
2024/01/30 14:38:04;;;;;;;8.50;1.60;;;;;;;;;;6247115;22;20028;-79
2024/01/30 14:40:31;;;;;;;;;;;;;;;;;;6248163;22;20314;-80
2024/01/30 14:42:58;;;;;;;9.95;1.40;;;;;;;;;;6248211;23;19938;-78